Pagrindinis puslapis
METAR-TAF:

METAR-TAF

Oro uostai :

Finkenwerder, Vokietija

platuma: 53-32N, ilguma: 009-50E, Aukštis: 5 m

Dabartinis oras

Ataskaita buvo paskelbta 24 minutes, ne 15:20 UTC
Vėjas 13 kt iš Šiaurės Rytų, svyruoja nuo Šiaurės/Šiaurės Rytų ir Rytų
Temperatūra 21°C
Drėgmė 28%
Slėgis 1024 hPa
Matomumas 10 km arba daugiau

METAR: EDHI 301520Z AUTO 05013KT 020V080 9999 // FEW076/// BKN091/// 21/02 Q1024

Laikas: 17:44 (15:44 UTC)

Prognozė

Ataskaita buvo paskelbta 22 valandos ir 44 minutes, ne 17:00 UTC
Prognozė galioja nuo 29 metu 18 UTC su 29 metu 21 UTC
Vėjas 3 kt nuo kintamojo kryptimis
Matomumas 10 km arba daugiau
nėra debesų žemiau 1500 m ir nėra kamuolinių lietaus debesų
Laikinai
nuo 29 metu 18 UTC su 29 metu 21 UTC
Vėjas 7 kt iš Šiaurės Rytų

TAF: EDHI 291700Z 2918/2921 VRB03KT CAVOK TEMPO 2918/2921 05007KT

Orai ataskaitas ir orų prognozės (METAR, TAF).

turimą stotys yra geltonos ir raudonos taškus žemėlapyje.

Perkelti pele per norėdami pamatyti stoties vardą.

Tada spustelėkite, norėdami matyti oro stebėjimo ir prognozės.

Norėdami pakeisti žemėlapį: spustelėkite ant žalios mygtukų su juodo kryžiaus žemyn,; žalią mygtuką su brūkšneliu, jei norite nutolinti; arba žalių rodyklių gretimoms žemėlapius.


METAR-TAF: